sensor_id;sensor_type;location;lat;lon;timestamp;P1;durP1;ratioP1;P2;durP2;ratioP2
25917;SDS011;13899;51.174;4.456;2022-09-09T00:05:13;8.10;;;4.60;;
25917;SDS011;13899;51.174;4.456;2022-09-09T00:07:45;7.30;;;4.35;;
25917;SDS011;13899;51.174;4.456;2022-09-09T00:10:27;5.38;;;3.40;;
25917;SDS011;13899;51.174;4.456;2022-09-09T00:21:55;6.00;;;3.42;;
25917;SDS011;13899;51.174;4.456;2022-09-09T00:24:44;6.90;;;4.13;;
25917;SDS011;13899;51.174;4.456;2022-09-09T00:27:34;7.20;;;3.28;;
25917;SDS011;13899;51.174;4.456;2022-09-09T00:30:17;6.38;;;3.55;;
25917;SDS011;13899;51.174;4.456;2022-09-09T00:32:49;9.90;;;3.75;;
25917;SDS011;13899;51.174;4.456;2022-09-09T00:37:52;4.32;;;3.20;;
25917;SDS011;13899;51.174;4.456;2022-09-09T00:40:32;5.38;;;3.22;;
25917;SDS011;13899;51.174;4.456;2022-09-09T00:57:03;6.40;;;2.78;;
25917;SDS011;13899;51.174;4.456;2022-09-09T01:02:29;7.95;;;3.42;;
25917;SDS011;13899;51.174;4.456;2022-09-09T01:08:14;5.38;;;3.00;;
25917;SDS011;13899;51.174;4.456;2022-09-09T01:11:01;9.23;;;4.15;;
25917;SDS011;13899;51.174;4.456;2022-09-09T01:13:37;6.70;;;3.35;;
25917;SDS011;13899;51.174;4.456;2022-09-09T01:18:44;5.43;;;3.03;;
25917;SDS011;13899;51.174;4.456;2022-09-09T01:24:13;4.55;;;2.95;;
25917;SDS011;13899;51.174;4.456;2022-09-09T01:27:01;6.65;;;3.60;;
25917;SDS011;13899;51.174;4.456;2022-09-09T01:29:30;6.97;;;3.65;;
25917;SDS011;13899;51.174;4.456;2022-09-09T01:34:26;3.15;;;2.85;;
25917;SDS011;13899;51.174;4.456;2022-09-09T01:37:06;3.50;;;2.83;;
25917;SDS011;13899;51.174;4.456;2022-09-09T01:39:35;5.72;;;3.05;;
25917;SDS011;13899;51.174;4.456;2022-09-09T01:42:03;8.02;;;2.67;;
25917;SDS011;13899;51.174;4.456;2022-09-09T01:44:30;6.03;;;3.30;;
25917;SDS011;13899;51.174;4.456;2022-09-09T01:46:56;6.20;;;3.58;;
25917;SDS011;13899;51.174;4.456;2022-09-09T01:49:22;7.30;;;3.15;;
25917;SDS011;13899;51.174;4.456;2022-09-09T01:51:53;7.75;;;3.08;;
25917;SDS011;13899;51.174;4.456;2022-09-09T01:54:20;6.07;;;3.63;;
25917;SDS011;13899;51.174;4.456;2022-09-09T01:57:02;5.30;;;3.03;;
25917;SDS011;13899;51.174;4.456;2022-09-09T02:02:19;5.75;;;2.40;;
25917;SDS011;13899;51.174;4.456;2022-09-09T02:05:11;5.53;;;2.60;;
25917;SDS011;13899;51.174;4.456;2022-09-09T02:08:09;5.78;;;2.60;;
25917;SDS011;13899;51.174;4.456;2022-09-09T02:14:03;8.13;;;3.25;;
25917;SDS011;13899;51.174;4.456;2022-09-09T02:16:52;6.88;;;2.95;;
25917;SDS011;13899;51.174;4.456;2022-09-09T02:19:20;6.72;;;3.17;;
25917;SDS011;13899;51.174;4.456;2022-09-09T02:21:52;5.68;;;3.40;;
25917;SDS011;13899;51.174;4.456;2022-09-09T02:24:20;7.30;;;3.28;;
25917;SDS011;13899;51.174;4.456;2022-09-09T02:26:47;9.07;;;3.30;;
25917;SDS011;13899;51.174;4.456;2022-09-09T02:29:25;7.13;;;3.50;;
25917;SDS011;13899;51.174;4.456;2022-09-09T02:32:14;7.18;;;2.92;;
25917;SDS011;13899;51.174;4.456;2022-09-09T02:34:47;5.80;;;3.28;;
25917;SDS011;13899;51.174;4.456;2022-09-09T02:37:19;8.20;;;2.80;;
25917;SDS011;13899;51.174;4.456;2022-09-09T02:39:48;6.97;;;3.17;;
25917;SDS011;13899;51.174;4.456;2022-09-09T02:42:14;5.30;;;3.05;;
25917;SDS011;13899;51.174;4.456;2022-09-09T02:44:40;7.45;;;3.08;;
25917;SDS011;13899;51.174;4.456;2022-09-09T02:47:13;6.63;;;3.00;;
25917;SDS011;13899;51.174;4.456;2022-09-09T02:53:05;4.68;;;2.60;;
25917;SDS011;13899;51.174;4.456;2022-09-09T02:58:15;6.13;;;3.17;;
25917;SDS011;13899;51.174;4.456;2022-09-09T03:00:43;5.25;;;3.13;;
25917;SDS011;13899;51.174;4.456;2022-09-09T03:03:13;6.18;;;3.10;;
25917;SDS011;13899;51.174;4.456;2022-09-09T03:05:41;6.10;;;2.72;;
25917;SDS011;13899;51.174;4.456;2022-09-09T03:08:07;5.73;;;2.80;;
25917;SDS011;13899;51.174;4.456;2022-09-09T03:10:32;8.65;;;3.00;;
25917;SDS011;13899;51.174;4.456;2022-09-09T03:12:59;5.68;;;3.78;;
25917;SDS011;13899;51.174;4.456;2022-09-09T03:15:25;8.13;;;4.85;;
25917;SDS011;13899;51.174;4.456;2022-09-09T03:17:55;10.13;;;5.28;;
25917;SDS011;13899;51.174;4.456;2022-09-09T03:25:14;9.18;;;5.40;;
25917;SDS011;13899;51.174;4.456;2022-09-09T03:27:40;12.02;;;6.47;;
25917;SDS011;13899;51.174;4.456;2022-09-09T03:30:05;12.65;;;5.43;;
25917;SDS011;13899;51.174;4.456;2022-09-09T03:32:32;11.35;;;5.32;;
25917;SDS011;13899;51.174;4.456;2022-09-09T03:34:58;8.57;;;5.53;;
25917;SDS011;13899;51.174;4.456;2022-09-09T03:37:24;13.18;;;5.80;;
25917;SDS011;13899;51.174;4.456;2022-09-09T03:39:49;12.25;;;6.80;;
25917;SDS011;13899;51.174;4.456;2022-09-09T03:42:15;11.65;;;4.53;;
25917;SDS011;13899;51.174;4.456;2022-09-09T03:44:44;6.78;;;3.60;;
25917;SDS011;13899;51.174;4.456;2022-09-09T03:47:15;12.52;;;4.20;;
25917;SDS011;13899;51.174;4.456;2022-09-09T03:49:44;11.10;;;4.10;;
25917;SDS011;13899;51.174;4.456;2022-09-09T03:52:10;13.15;;;3.63;;
25917;SDS011;13899;51.174;4.456;2022-09-09T03:54:37;10.47;;;4.07;;
25917;SDS011;13899;51.174;4.456;2022-09-09T03:57:03;11.38;;;4.00;;
25917;SDS011;13899;51.174;4.456;2022-09-09T03:59:29;9.60;;;3.78;;
25917;SDS011;13899;51.174;4.456;2022-09-09T04:01:55;12.60;;;3.38;;
25917;SDS011;13899;51.174;4.456;2022-09-09T04:04:22;12.23;;;3.28;;
25917;SDS011;13899;51.174;4.456;2022-09-09T04:06:47;9.77;;;3.63;;
25917;SDS011;13899;51.174;4.456;2022-09-09T04:09:13;12.90;;;3.45;;
25917;SDS011;13899;51.174;4.456;2022-09-09T04:11:39;8.82;;;3.42;;
25917;SDS011;13899;51.174;4.456;2022-09-09T04:14:05;11.23;;;3.88;;
25917;SDS011;13899;51.174;4.456;2022-09-09T04:16:31;13.30;;;3.55;;
25917;SDS011;13899;51.174;4.456;2022-09-09T04:18:57;11.02;;;3.25;;
25917;SDS011;13899;51.174;4.456;2022-09-09T04:23:50;10.87;;;3.30;;
25917;SDS011;13899;51.174;4.456;2022-09-09T04:26:16;16.50;;;5.20;;
25917;SDS011;13899;51.174;4.456;2022-09-09T04:28:42;8.07;;;3.85;;
25917;SDS011;13899;51.174;4.456;2022-09-09T04:31:16;11.07;;;3.57;;
25917;SDS011;13899;51.174;4.456;2022-09-09T04:33:44;12.48;;;3.50;;
25917;SDS011;13899;51.174;4.456;2022-09-09T04:36:11;7.38;;;3.58;;
25917;SDS011;13899;51.174;4.456;2022-09-09T04:38:38;7.25;;;3.08;;
25917;SDS011;13899;51.174;4.456;2022-09-09T04:41:04;13.48;;;3.78;;
25917;SDS011;13899;51.174;4.456;2022-09-09T04:43:30;8.75;;;3.55;;
25917;SDS011;13899;51.174;4.456;2022-09-09T04:45:56;10.73;;;3.28;;
25917;SDS011;13899;51.174;4.456;2022-09-09T04:48:24;7.95;;;2.78;;
25917;SDS011;13899;51.174;4.456;2022-09-09T04:50:57;12.07;;;3.83;;
25917;SDS011;13899;51.174;4.456;2022-09-09T04:53:24;13.60;;;3.72;;
25917;SDS011;13899;51.174;4.456;2022-09-09T04:55:50;12.52;;;3.20;;
25917;SDS011;13899;51.174;4.456;2022-09-09T04:58:26;9.90;;;3.97;;
25917;SDS011;13899;51.174;4.456;2022-09-09T05:00:52;11.60;;;3.63;;
25917;SDS011;13899;51.174;4.456;2022-09-09T05:03:17;9.75;;;3.08;;
25917;SDS011;13899;51.174;4.456;2022-09-09T05:05:44;12.43;;;3.22;;
25917;SDS011;13899;51.174;4.456;2022-09-09T05:08:10;8.35;;;3.03;;
25917;SDS011;13899;51.174;4.456;2022-09-09T05:10:39;15.75;;;4.18;;
25917;SDS011;13899;51.174;4.456;2022-09-09T05:13:06;10.77;;;3.60;;
25917;SDS011;13899;51.174;4.456;2022-09-09T05:15:32;12.32;;;3.80;;
25917;SDS011;13899;51.174;4.456;2022-09-09T05:17:58;12.13;;;3.53;;
25917;SDS011;13899;51.174;4.456;2022-09-09T05:20:25;10.05;;;4.25;;
25917;SDS011;13899;51.174;4.456;2022-09-09T05:22:54;12.10;;;3.50;;
25917;SDS011;13899;51.174;4.456;2022-09-09T05:25:21;14.18;;;4.00;;
25917;SDS011;13899;51.174;4.456;2022-09-09T05:27:47;10.02;;;3.13;;
25917;SDS011;13899;51.174;4.456;2022-09-09T05:30:13;13.23;;;3.42;;
25917;SDS011;13899;51.174;4.456;2022-09-09T05:32:38;13.18;;;4.07;;
25917;SDS011;13899;51.174;4.456;2022-09-09T05:35:05;13.18;;;3.75;;
25917;SDS011;13899;51.174;4.456;2022-09-09T05:37:31;11.00;;;3.72;;
25917;SDS011;13899;51.174;4.456;2022-09-09T05:39:56;10.02;;;3.70;;
25917;SDS011;13899;51.174;4.456;2022-09-09T05:42:23;10.93;;;3.63;;
25917;SDS011;13899;51.174;4.456;2022-09-09T05:44:48;10.70;;;3.63;;
25917;SDS011;13899;51.174;4.456;2022-09-09T05:49:42;11.43;;;3.83;;
25917;SDS011;13899;51.174;4.456;2022-09-09T05:52:09;8.38;;;3.78;;
25917;SDS011;13899;51.174;4.456;2022-09-09T05:54:34;13.35;;;3.47;;
25917;SDS011;13899;51.174;4.456;2022-09-09T05:57:02;15.98;;;3.78;;
25917;SDS011;13899;51.174;4.456;2022-09-09T05:59:28;12.00;;;3.20;;
25917;SDS011;13899;51.174;4.456;2022-09-09T06:01:54;9.80;;;3.15;;
25917;SDS011;13899;51.174;4.456;2022-09-09T06:04:19;10.10;;;3.33;;
25917;SDS011;13899;51.174;4.456;2022-09-09T06:06:49;6.28;;;3.10;;
25917;SDS011;13899;51.174;4.456;2022-09-09T06:09:14;6.55;;;2.80;;
25917;SDS011;13899;51.174;4.456;2022-09-09T06:11:41;8.95;;;3.28;;
25917;SDS011;13899;51.174;4.456;2022-09-09T06:14:06;14.00;;;3.60;;
25917;SDS011;13899;51.174;4.456;2022-09-09T06:16:32;11.60;;;3.33;;
25917;SDS011;13899;51.174;4.456;2022-09-09T06:18:59;6.30;;;2.63;;
25917;SDS011;13899;51.174;4.456;2022-09-09T06:21:26;6.93;;;3.33;;
25917;SDS011;13899;51.174;4.456;2022-09-09T06:23:55;6.28;;;3.20;;
25917;SDS011;13899;51.174;4.456;2022-09-09T06:26:25;8.65;;;2.85;;
25917;SDS011;13899;51.174;4.456;2022-09-09T06:28:53;15.02;;;3.85;;
25917;SDS011;13899;51.174;4.456;2022-09-09T06:31:23;6.22;;;2.47;;
25917;SDS011;13899;51.174;4.456;2022-09-09T06:33:51;13.65;;;2.53;;
25917;SDS011;13899;51.174;4.456;2022-09-09T06:36:37;7.28;;;2.67;;
25917;SDS011;13899;51.174;4.456;2022-09-09T06:39:04;7.93;;;3.00;;
25917;SDS011;13899;51.174;4.456;2022-09-09T06:41:31;9.65;;;2.35;;
25917;SDS011;13899;51.174;4.456;2022-09-09T06:43:58;10.77;;;2.70;;
25917;SDS011;13899;51.174;4.456;2022-09-09T06:46:24;6.03;;;2.20;;
25917;SDS011;13899;51.174;4.456;2022-09-09T06:48:55;8.02;;;2.80;;
25917;SDS011;13899;51.174;4.456;2022-09-09T06:51:24;6.25;;;2.40;;
25917;SDS011;13899;51.174;4.456;2022-09-09T06:53:55;11.55;;;3.03;;
25917;SDS011;13899;51.174;4.456;2022-09-09T06:56:24;11.20;;;2.25;;
25917;SDS011;13899;51.174;4.456;2022-09-09T06:58:53;9.20;;;2.53;;
25917;SDS011;13899;51.174;4.456;2022-09-09T07:01:20;8.27;;;2.83;;
25917;SDS011;13899;51.174;4.456;2022-09-09T07:03:49;10.10;;;2.40;;
25917;SDS011;13899;51.174;4.456;2022-09-09T07:06:16;7.07;;;2.58;;
25917;SDS011;13899;51.174;4.456;2022-09-09T07:08:48;8.60;;;2.63;;
25917;SDS011;13899;51.174;4.456;2022-09-09T07:11:21;11.18;;;2.60;;
25917;SDS011;13899;51.174;4.456;2022-09-09T07:13:48;11.32;;;2.38;;
25917;SDS011;13899;51.174;4.456;2022-09-09T07:16:15;7.82;;;2.90;;
25917;SDS011;13899;51.174;4.456;2022-09-09T07:18:43;8.68;;;1.92;;
25917;SDS011;13899;51.174;4.456;2022-09-09T07:21:09;11.88;;;2.47;;
25917;SDS011;13899;51.174;4.456;2022-09-09T07:23:36;7.43;;;2.47;;
25917;SDS011;13899;51.174;4.456;2022-09-09T07:26:07;5.55;;;2.33;;
25917;SDS011;13899;51.174;4.456;2022-09-09T07:28:38;7.55;;;2.05;;
25917;SDS011;13899;51.174;4.456;2022-09-09T07:31:04;10.30;;;2.50;;
25917;SDS011;13899;51.174;4.456;2022-09-09T07:36:05;8.07;;;2.33;;
25917;SDS011;13899;51.174;4.456;2022-09-09T07:38:39;4.30;;;1.60;;
25917;SDS011;13899;51.174;4.456;2022-09-09T07:41:12;6.60;;;1.85;;
25917;SDS011;13899;51.174;4.456;2022-09-09T07:43:41;11.13;;;2.85;;
25917;SDS011;13899;51.174;4.456;2022-09-09T07:46:08;4.75;;;2.05;;
25917;SDS011;13899;51.174;4.456;2022-09-09T07:48:34;10.68;;;2.13;;
25917;SDS011;13899;51.174;4.456;2022-09-09T07:51:12;8.63;;;1.97;;
25917;SDS011;13899;51.174;4.456;2022-09-09T07:53:44;5.68;;;2.40;;
25917;SDS011;13899;51.174;4.456;2022-09-09T07:56:10;9.70;;;2.47;;
25917;SDS011;13899;51.174;4.456;2022-09-09T07:58:38;6.30;;;2.03;;
25917;SDS011;13899;51.174;4.456;2022-09-09T08:01:12;7.88;;;2.47;;
25917;SDS011;13899;51.174;4.456;2022-09-09T08:03:41;6.38;;;1.70;;
25917;SDS011;13899;51.174;4.456;2022-09-09T08:06:07;5.65;;;2.05;;
25917;SDS011;13899;51.174;4.456;2022-09-09T08:11:01;4.72;;;1.85;;
25917;SDS011;13899;51.174;4.456;2022-09-09T08:13:32;7.57;;;2.10;;
25917;SDS011;13899;51.174;4.456;2022-09-09T08:16:06;6.35;;;1.80;;
25917;SDS011;13899;51.174;4.456;2022-09-09T08:18:35;5.85;;;2.13;;
25917;SDS011;13899;51.174;4.456;2022-09-09T08:21:08;7.57;;;1.90;;
25917;SDS011;13899;51.174;4.456;2022-09-09T08:23:39;6.53;;;1.88;;
25917;SDS011;13899;51.174;4.456;2022-09-09T08:26:28;9.10;;;2.05;;
25917;SDS011;13899;51.174;4.456;2022-09-09T08:28:54;4.00;;;1.70;;
25917;SDS011;13899;51.174;4.456;2022-09-09T08:31:22;7.00;;;1.83;;
25917;SDS011;13899;51.174;4.456;2022-09-09T08:33:50;4.43;;;1.77;;
25917;SDS011;13899;51.174;4.456;2022-09-09T08:36:20;6.35;;;1.90;;
25917;SDS011;13899;51.174;4.456;2022-09-09T08:38:47;6.80;;;1.90;;
25917;SDS011;13899;51.174;4.456;2022-09-09T08:43:58;7.97;;;2.20;;
25917;SDS011;13899;51.174;4.456;2022-09-09T08:52:01;4.72;;;1.88;;
25917;SDS011;13899;51.174;4.456;2022-09-09T08:56:58;7.70;;;1.80;;
25917;SDS011;13899;51.174;4.456;2022-09-09T08:59:23;6.00;;;2.25;;
25917;SDS011;13899;51.174;4.456;2022-09-09T09:04:37;7.75;;;3.38;;
25917;SDS011;13899;51.174;4.456;2022-09-09T09:07:28;7.57;;;2.10;;
25917;SDS011;13899;51.174;4.456;2022-09-09T09:10:10;7.28;;;2.90;;
25917;SDS011;13899;51.174;4.456;2022-09-09T09:12:43;5.47;;;2.40;;
25917;SDS011;13899;51.174;4.456;2022-09-09T09:15:14;8.07;;;2.78;;
25917;SDS011;13899;51.174;4.456;2022-09-09T09:17:44;8.88;;;2.63;;
25917;SDS011;13899;51.174;4.456;2022-09-09T09:20:16;8.75;;;2.53;;
25917;SDS011;13899;51.174;4.456;2022-09-09T09:22:49;5.68;;;2.90;;
25917;SDS011;13899;51.174;4.456;2022-09-09T09:30:20;5.10;;;3.00;;
25917;SDS011;13899;51.174;4.456;2022-09-09T09:33:12;6.07;;;2.70;;
25917;SDS011;13899;51.174;4.456;2022-09-09T09:35:40;8.52;;;2.67;;
25917;SDS011;13899;51.174;4.456;2022-09-09T09:38:25;6.30;;;2.60;;
25917;SDS011;13899;51.174;4.456;2022-09-09T09:40:53;8.38;;;2.58;;
25917;SDS011;13899;51.174;4.456;2022-09-09T09:43:24;6.95;;;2.60;;
25917;SDS011;13899;51.174;4.456;2022-09-09T09:45:58;10.35;;;2.97;;
25917;SDS011;13899;51.174;4.456;2022-09-09T09:48:24;7.90;;;2.60;;
25917;SDS011;13899;51.174;4.456;2022-09-09T09:50:51;6.18;;;2.58;;
25917;SDS011;13899;51.174;4.456;2022-09-09T09:53:26;7.03;;;3.22;;
25917;SDS011;13899;51.174;4.456;2022-09-09T09:55:56;7.38;;;2.97;;
25917;SDS011;13899;51.174;4.456;2022-09-09T09:58:26;6.55;;;2.53;;
25917;SDS011;13899;51.174;4.456;2022-09-09T10:00:57;8.07;;;2.95;;
25917;SDS011;13899;51.174;4.456;2022-09-09T10:03:25;5.25;;;2.40;;
25917;SDS011;13899;51.174;4.456;2022-09-09T10:05:55;6.53;;;2.17;;
25917;SDS011;13899;51.174;4.456;2022-09-09T10:08:22;8.13;;;2.40;;
25917;SDS011;13899;51.174;4.456;2022-09-09T10:32:49;5.95;;;1.90;;
25917;SDS011;13899;51.174;4.456;2022-09-09T10:35:29;6.32;;;1.92;;
25917;SDS011;13899;51.174;4.456;2022-09-09T10:38:16;4.78;;;1.55;;
25917;SDS011;13899;51.174;4.456;2022-09-09T10:51:47;6.15;;;1.73;;
25917;SDS011;13899;51.174;4.456;2022-09-09T10:56:54;5.53;;;1.90;;
25917;SDS011;13899;51.174;4.456;2022-09-09T10:59:29;5.18;;;2.00;;
25917;SDS011;13899;51.174;4.456;2022-09-09T11:02:02;5.05;;;1.40;;
25917;SDS011;13899;51.174;4.456;2022-09-09T11:04:40;3.90;;;1.20;;
25917;SDS011;13899;51.174;4.456;2022-09-09T11:07:14;5.80;;;1.83;;
25917;SDS011;13899;51.174;4.456;2022-09-09T11:09:51;5.22;;;1.60;;
25917;SDS011;13899;51.174;4.456;2022-09-09T11:12:23;9.57;;;1.30;;
25917;SDS011;13899;51.174;4.456;2022-09-09T11:14:54;3.10;;;1.23;;
25917;SDS011;13899;51.174;4.456;2022-09-09T11:17:23;3.63;;;1.15;;
25917;SDS011;13899;51.174;4.456;2022-09-09T11:19:55;3.33;;;1.63;;
25917;SDS011;13899;51.174;4.456;2022-09-09T11:36:40;3.00;;;1.42;;
25917;SDS011;13899;51.174;4.456;2022-09-09T11:41:44;9.18;;;1.30;;
25917;SDS011;13899;51.174;4.456;2022-09-09T11:46:38;2.72;;;1.00;;
25917;SDS011;13899;51.174;4.456;2022-09-09T11:49:06;5.85;;;1.20;;
25917;SDS011;13899;51.174;4.456;2022-09-09T11:51:53;2.92;;;1.10;;
25917;SDS011;13899;51.174;4.456;2022-09-09T11:56:56;3.30;;;0.90;;
25917;SDS011;13899;51.174;4.456;2022-09-09T11:59:31;3.10;;;1.00;;
25917;SDS011;13899;51.174;4.456;2022-09-09T12:07:04;1.43;;;0.73;;
25917;SDS011;13899;51.174;4.456;2022-09-09T12:09:46;4.20;;;0.90;;
25917;SDS011;13899;51.174;4.456;2022-09-09T12:17:41;2.25;;;1.05;;
25917;SDS011;13899;51.174;4.456;2022-09-09T12:23:05;4.45;;;0.93;;
25917;SDS011;13899;51.174;4.456;2022-09-09T12:31:10;2.60;;;0.80;;
25917;SDS011;13899;51.174;4.456;2022-09-09T12:33:53;4.25;;;0.80;;
25917;SDS011;13899;51.174;4.456;2022-09-09T12:36:19;3.20;;;0.97;;
25917;SDS011;13899;51.174;4.456;2022-09-09T12:38:54;2.35;;;0.90;;
25917;SDS011;13899;51.174;4.456;2022-09-09T12:41:26;3.03;;;0.80;;
25917;SDS011;13899;51.174;4.456;2022-09-09T12:44:05;2.83;;;0.90;;
25917;SDS011;13899;51.174;4.456;2022-09-09T12:46:39;3.17;;;1.20;;
25917;SDS011;13899;51.174;4.456;2022-09-09T12:49:25;3.08;;;1.20;;
25917;SDS011;13899;51.174;4.456;2022-09-09T12:51:51;2.38;;;1.10;;
25917;SDS011;13899;51.174;4.456;2022-09-09T12:54:18;2.30;;;0.93;;
25917;SDS011;13899;51.174;4.456;2022-09-09T12:56:45;6.20;;;1.40;;
25917;SDS011;13899;51.174;4.456;2022-09-09T13:00:03;2.20;;;0.82;;
25917;SDS011;13899;51.174;4.456;2022-09-09T13:02:11;3.70;;;0.90;;
25917;SDS011;13899;51.174;4.456;2022-09-09T13:04:43;2.75;;;0.70;;
25917;SDS011;13899;51.174;4.456;2022-09-09T13:07:10;2.60;;;1.05;;
25917;SDS011;13899;51.174;4.456;2022-09-09T13:09:37;2.45;;;0.80;;
25917;SDS011;13899;51.174;4.456;2022-09-09T13:12:03;4.27;;;1.03;;
25917;SDS011;13899;51.174;4.456;2022-09-09T13:14:32;4.47;;;0.90;;
25917;SDS011;13899;51.174;4.456;2022-09-09T13:17:03;3.65;;;1.10;;
25917;SDS011;13899;51.174;4.456;2022-09-09T13:19:31;2.45;;;0.90;;
25917;SDS011;13899;51.174;4.456;2022-09-09T13:22:10;1.85;;;0.98;;
25917;SDS011;13899;51.174;4.456;2022-09-09T13:24:45;2.00;;;0.90;;
25917;SDS011;13899;51.174;4.456;2022-09-09T13:27:26;2.33;;;0.80;;
25917;SDS011;13899;51.174;4.456;2022-09-09T13:29:55;2.20;;;0.70;;
25917;SDS011;13899;51.174;4.456;2022-09-09T13:32:22;2.08;;;0.88;;
25917;SDS011;13899;51.174;4.456;2022-09-09T13:34:53;2.05;;;0.68;;
25917;SDS011;13899;51.174;4.456;2022-09-09T13:37:33;1.35;;;0.60;;
25917;SDS011;13899;51.174;4.456;2022-09-09T13:40:02;3.17;;;0.80;;
25917;SDS011;13899;51.174;4.456;2022-09-09T13:42:31;2.38;;;0.95;;
25917;SDS011;13899;51.174;4.456;2022-09-09T13:45:02;1.90;;;0.88;;
25917;SDS011;13899;51.174;4.456;2022-09-09T13:47:36;2.05;;;0.80;;
25917;SDS011;13899;51.174;4.456;2022-09-09T13:52:48;2.90;;;1.13;;
25917;SDS011;13899;51.174;4.456;2022-09-09T13:55:16;3.00;;;0.80;;
25917;SDS011;13899;51.174;4.456;2022-09-09T14:00:21;2.90;;;0.90;;
25917;SDS011;13899;51.174;4.456;2022-09-09T14:02:51;2.05;;;0.90;;
25917;SDS011;13899;51.174;4.456;2022-09-09T14:05:19;1.95;;;0.70;;
25917;SDS011;13899;51.174;4.456;2022-09-09T14:10:12;1.67;;;0.73;;
25917;SDS011;13899;51.174;4.456;2022-09-09T14:12:38;2.08;;;0.90;;
25917;SDS011;13899;51.174;4.456;2022-09-09T14:15:05;1.77;;;0.70;;
25917;SDS011;13899;51.174;4.456;2022-09-09T14:17:31;2.55;;;0.93;;
25917;SDS011;13899;51.174;4.456;2022-09-09T14:19:58;2.03;;;0.80;;
25917;SDS011;13899;51.174;4.456;2022-09-09T14:22:24;1.97;;;0.80;;
25917;SDS011;13899;51.174;4.456;2022-09-09T14:24:50;3.47;;;1.10;;
25917;SDS011;13899;51.174;4.456;2022-09-09T14:27:16;2.95;;;0.85;;
25917;SDS011;13899;51.174;4.456;2022-09-09T14:29:43;3.22;;;0.90;;
25917;SDS011;13899;51.174;4.456;2022-09-09T14:32:09;1.70;;;1.07;;
25917;SDS011;13899;51.174;4.456;2022-09-09T14:34:35;4.15;;;0.80;;
25917;SDS011;13899;51.174;4.456;2022-09-09T14:37:01;1.93;;;0.80;;
25917;SDS011;13899;51.174;4.456;2022-09-09T14:39:27;2.47;;;1.00;;
25917;SDS011;13899;51.174;4.456;2022-09-09T14:41:53;3.13;;;0.90;;
25917;SDS011;13899;51.174;4.456;2022-09-09T14:44:19;2.77;;;0.83;;
25917;SDS011;13899;51.174;4.456;2022-09-09T14:46:44;5.63;;;1.87;;
25917;SDS011;13899;51.174;4.456;2022-09-09T14:49:10;1.07;;;0.70;;
25917;SDS011;13899;51.174;4.456;2022-09-09T14:51:36;1.57;;;0.80;;
25917;SDS011;13899;51.174;4.456;2022-09-09T14:54:02;3.63;;;1.03;;
25917;SDS011;13899;51.174;4.456;2022-09-09T14:56:30;3.05;;;0.70;;
25917;SDS011;13899;51.174;4.456;2022-09-09T14:58:58;2.35;;;0.80;;
25917;SDS011;13899;51.174;4.456;2022-09-09T15:01:26;2.75;;;1.10;;
25917;SDS011;13899;51.174;4.456;2022-09-09T15:03:53;4.47;;;0.80;;
25917;SDS011;13899;51.174;4.456;2022-09-09T15:06:26;2.85;;;0.80;;
25917;SDS011;13899;51.174;4.456;2022-09-09T15:08:54;1.60;;;0.68;;
25917;SDS011;13899;51.174;4.456;2022-09-09T15:11:22;2.40;;;0.90;;
25917;SDS011;13899;51.174;4.456;2022-09-09T15:13:50;1.90;;;0.70;;
25917;SDS011;13899;51.174;4.456;2022-09-09T15:16:20;1.83;;;1.00;;
25917;SDS011;13899;51.174;4.456;2022-09-09T15:18:50;2.42;;;0.82;;
25917;SDS011;13899;51.174;4.456;2022-09-09T15:21:18;1.25;;;0.90;;
25917;SDS011;13899;51.174;4.456;2022-09-09T15:23:46;1.75;;;0.50;;
25917;SDS011;13899;51.174;4.456;2022-09-09T15:26:12;0.57;;;0.57;;
25917;SDS011;13899;51.174;4.456;2022-09-09T15:28:42;1.63;;;0.90;;
25917;SDS011;13899;51.174;4.456;2022-09-09T15:31:19;3.30;;;0.80;;
25917;SDS011;13899;51.174;4.456;2022-09-09T15:33:50;1.38;;;0.70;;
25917;SDS011;13899;51.174;4.456;2022-09-09T15:38:50;3.80;;;0.90;;
25917;SDS011;13899;51.174;4.456;2022-09-09T15:41:17;2.53;;;1.25;;
25917;SDS011;13899;51.174;4.456;2022-09-09T15:43:45;2.22;;;0.82;;
25917;SDS011;13899;51.174;4.456;2022-09-09T15:46:22;2.38;;;0.77;;
25917;SDS011;13899;51.174;4.456;2022-09-09T15:48:51;2.22;;;0.82;;
25917;SDS011;13899;51.174;4.456;2022-09-09T15:51:19;1.70;;;0.75;;
25917;SDS011;13899;51.174;4.456;2022-09-09T15:53:45;2.43;;;0.70;;
25917;SDS011;13899;51.174;4.456;2022-09-09T15:56:11;2.13;;;0.70;;
25917;SDS011;13899;51.174;4.456;2022-09-09T15:58:36;2.08;;;0.80;;
25917;SDS011;13899;51.174;4.456;2022-09-09T16:01:03;2.47;;;0.90;;
25917;SDS011;13899;51.174;4.456;2022-09-09T16:03:41;1.27;;;0.93;;
25917;SDS011;13899;51.174;4.456;2022-09-09T16:06:10;1.08;;;0.77;;
25917;SDS011;13899;51.174;4.456;2022-09-09T16:08:37;2.47;;;1.20;;
25917;SDS011;13899;51.174;4.456;2022-09-09T16:11:05;2.47;;;0.98;;
25917;SDS011;13899;51.174;4.456;2022-09-09T16:13:35;2.13;;;1.20;;
25917;SDS011;13899;51.174;4.456;2022-09-09T16:16:02;3.20;;;1.08;;
25917;SDS011;13899;51.174;4.456;2022-09-09T16:18:36;2.33;;;1.10;;
25917;SDS011;13899;51.174;4.456;2022-09-09T16:21:03;2.75;;;1.10;;
25917;SDS011;13899;51.174;4.456;2022-09-09T16:23:32;2.78;;;1.15;;
25917;SDS011;13899;51.174;4.456;2022-09-09T16:26:05;2.35;;;0.70;;
25917;SDS011;13899;51.174;4.456;2022-09-09T16:28:31;3.50;;;1.03;;
25917;SDS011;13899;51.174;4.456;2022-09-09T16:33:28;3.20;;;1.30;;
25917;SDS011;13899;51.174;4.456;2022-09-09T16:35:55;2.75;;;1.88;;
25917;SDS011;13899;51.174;4.456;2022-09-09T16:38:20;2.65;;;1.50;;
25917;SDS011;13899;51.174;4.456;2022-09-09T16:40:46;1.70;;;0.97;;
25917;SDS011;13899;51.174;4.456;2022-09-09T16:43:15;1.25;;;0.98;;
25917;SDS011;13899;51.174;4.456;2022-09-09T16:45:43;3.13;;;1.40;;
25917;SDS011;13899;51.174;4.456;2022-09-09T16:48:10;5.65;;;1.65;;
25917;SDS011;13899;51.174;4.456;2022-09-09T16:50:36;3.17;;;1.73;;
25917;SDS011;13899;51.174;4.456;2022-09-09T16:53:04;3.25;;;1.60;;
25917;SDS011;13899;51.174;4.456;2022-09-09T16:55:36;3.45;;;1.83;;
25917;SDS011;13899;51.174;4.456;2022-09-09T16:58:03;4.28;;;2.00;;
25917;SDS011;13899;51.174;4.456;2022-09-09T17:00:29;4.30;;;2.00;;
25917;SDS011;13899;51.174;4.456;2022-09-09T17:02:54;2.67;;;1.83;;
25917;SDS011;13899;51.174;4.456;2022-09-09T17:05:20;3.47;;;1.80;;
25917;SDS011;13899;51.174;4.456;2022-09-09T17:07:46;3.33;;;2.10;;
25917;SDS011;13899;51.174;4.456;2022-09-09T17:10:12;4.73;;;2.20;;
25917;SDS011;13899;51.174;4.456;2022-09-09T17:12:38;4.50;;;2.25;;
25917;SDS011;13899;51.174;4.456;2022-09-09T17:15:05;3.45;;;2.50;;
25917;SDS011;13899;51.174;4.456;2022-09-09T17:17:31;4.60;;;2.33;;
25917;SDS011;13899;51.174;4.456;2022-09-09T17:19:57;3.77;;;2.17;;
25917;SDS011;13899;51.174;4.456;2022-09-09T17:22:23;5.20;;;2.43;;
25917;SDS011;13899;51.174;4.456;2022-09-09T17:24:48;4.57;;;2.30;;
25917;SDS011;13899;51.174;4.456;2022-09-09T17:27:15;4.07;;;1.90;;
25917;SDS011;13899;51.174;4.456;2022-09-09T17:29:41;4.73;;;1.90;;
25917;SDS011;13899;51.174;4.456;2022-09-09T17:32:07;4.57;;;2.10;;
25917;SDS011;13899;51.174;4.456;2022-09-09T17:34:34;5.55;;;2.78;;
25917;SDS011;13899;51.174;4.456;2022-09-09T17:36:59;3.30;;;1.95;;
25917;SDS011;13899;51.174;4.456;2022-09-09T17:39:25;3.38;;;2.03;;
25917;SDS011;13899;51.174;4.456;2022-09-09T17:41:51;5.05;;;2.50;;
25917;SDS011;13899;51.174;4.456;2022-09-09T17:44:18;4.40;;;2.28;;
25917;SDS011;13899;51.174;4.456;2022-09-09T17:46:44;5.47;;;2.47;;
25917;SDS011;13899;51.174;4.456;2022-09-09T17:49:11;4.22;;;2.55;;
25917;SDS011;13899;51.174;4.456;2022-09-09T17:51:39;4.13;;;2.33;;
25917;SDS011;13899;51.174;4.456;2022-09-09T17:54:08;3.55;;;2.38;;
25917;SDS011;13899;51.174;4.456;2022-09-09T17:56:40;5.63;;;2.42;;
25917;SDS011;13899;51.174;4.456;2022-09-09T18:01:35;5.07;;;2.80;;